Loachapoka, Alabama
Current Conditions -  °F | °C
As of 3:35 PM on Thursday 18 Dec 2014 (Local Time) from KAUO Reporting Station
Overcast Overcast  
Wind Chill: 13°   Ceiling: 4800
Heat Index: 13°   Visibility: 10mi
Dew Point: -1°   Wind: 6mph
Humidity: 38%   Direction: 290°WNW
Pressure: 30.14"   Gusts: NA
Location:  32.6°N, 85.59°W
Report Text: KAUO 182135Z AUTO 29005KT 10SM OVC048 13/M01 A3014 RMK AO1
Loading
Personal Weather Stations






























Interactive Weather Map New forecast layout! Learn more

10-Day Weather Forecast

Advertisements
Track Severe Weather on mobile